ID Time Temp Humidity Light PM2.5 PM10 Voltage Extra Firmware Position Fcnt Gateways Distance RSSI LSNR Radiosettings
2020-09-29 08:46:31 13.125°C 96% 3.34V v4 51.5564 / 5.06757 7947 - -109 2.2 867.9Mhz, SF9BW125, 4/5CR
- -113 -12 867.9Mhz, SF9BW125, 4/5CR
2020-09-29 08:31:01 13.0625°C 98.4375% 3.34V v4 51.5564 / 5.06757 7946 - -105 -5.2 868.3Mhz, SF9BW125, 4/5CR
2020-09-29 08:15:30 13.125°C 100.812% 3.34V v4 51.5564 / 5.06757 7945 - -109 8.2 867.7Mhz, SF9BW125, 4/5CR
- -117 -4.2 867.7Mhz, SF9BW125, 4/5CR
- -111 -10.25 867.7Mhz, SF9BW125, 4/5CR
2020-09-29 08:00:00 13.125°C 103.25% 3.34V v4 51.5564 / 5.06757 7944 - -111 4.5 868.1Mhz, SF9BW125, 4/5CR
2020-09-29 07:44:29 13.1875°C 105.562% 3.34V v4 51.5564 / 5.06757 7943 - -109 0.5 867.5Mhz, SF9BW125, 4/5CR
2020-09-29 07:13:28 13.25°C 110.188% 3.34V v4 51.5564 / 5.06757 7941 - -115 -1.2 867.3Mhz, SF9BW125, 4/5CR
2020-09-29 06:42:27 13.25°C 115.188% 3.34V v4 51.5564 / 5.06757 7939 - -117 0 867.1Mhz, SF9BW125, 4/5CR
2020-09-29 06:11:26 13.375°C -5% 3.34V v4 51.5564 / 5.06757 7937 - -111 7.5 867.9Mhz, SF9BW125, 4/5CR
- -117 -4.8 867.9Mhz, SF9BW125, 4/5CR
2020-09-29 05:55:56 13.375°C -2.375% 3.34V v4 51.5564 / 5.06757 7936 - -100 -10.8 868.5Mhz, SF9BW125, 4/5CR
2020-09-29 05:40:25 13.375°C 0.1875% 3.34V v4 51.5564 / 5.06757 7935 - -109 7 867.7Mhz, SF9BW125, 4/5CR
- -117 -3.5 867.7Mhz, SF9BW125, 4/5CR
- -111 -9.25 867.7Mhz, SF9BW125, 4/5CR
2020-09-29 05:09:24 13.3125°C 5.5625% 3.33V v4 51.5564 / 5.06757 7933 - -106 1.8 867.5Mhz, SF9BW125, 4/5CR
2020-09-29 04:38:23 13°C 88.375% 3.34V v4 51.5564 / 5.06757 7931 - -119 -1 867.3Mhz, SF9BW125, 4/5CR
2020-09-29 04:22:53 12.75°C 88.3125% 3.34V v4 51.5564 / 5.06757 7930 - -99 -11 868.5Mhz, SF9BW125, 4/5CR
2020-09-29 04:07:22 12.625°C 88.3125% 3.34V v4 51.5564 / 5.06757 7929 - -118 -4.8 867.1Mhz, SF9BW125, 4/5CR
2020-09-29 03:51:52 12.5625°C 88.3125% 3.34V v4 51.5564 / 5.06757 7928 - -111 -5.2 868.3Mhz, SF9BW125, 4/5CR
2020-09-29 03:36:22 12.4375°C 88.3125% 3.34V v4 51.5564 / 5.06757 7927 - -109 6.5 867.9Mhz, SF9BW125, 4/5CR
- -117 -3.8 867.9Mhz, SF9BW125, 4/5CR
2020-09-29 03:05:22 12.375°C 88.375% 3.34V v4 51.5564 / 5.06757 7925 - -109 8 867.7Mhz, SF9BW125, 4/5CR
- -117 -3.2 867.7Mhz, SF9BW125, 4/5CR
- -111 -11.75 867.7Mhz, SF9BW125, 4/5CR
2020-09-29 02:34:22 12.375°C 88.5% 3.34V v4 51.5564 / 5.06757 7923 - -111 -1.8 867.5Mhz, SF9BW125, 4/5CR
2020-09-29 02:03:22 12.25°C 88.6875% 3.34V v4 51.5564 / 5.06757 7921 - -104 -1.2 867.3Mhz, SF9BW125, 4/5CR
2020-09-29 01:47:51 12.25°C 88.75% 3.34V v4 51.5564 / 5.06757 7920 - -103 2.2 868.1Mhz, SF9BW125, 4/5CR
2020-09-29 01:32:21 12.25°C 88.875% 3.34V v4 51.5564 / 5.06757 7919 - -115 -2.5 867.1Mhz, SF9BW125, 4/5CR
- -118 -11.5 867.1Mhz, SF9BW125, 4/5CR
2020-09-29 01:01:21 12.1875°C 89.1875% 3.34V v4 51.5564 / 5.06757 7917 - -111 7 867.9Mhz, SF9BW125, 4/5CR
- -115 -4.2 867.9Mhz, SF9BW125, 4/5CR
- -110 -13.25 867.9Mhz, SF9BW125, 4/5CR
2020-09-29 00:30:21 12.25°C 89.5625% 3.34V v4 51.5564 / 5.06757 7915 - -109 6.5 867.7Mhz, SF9BW125, 4/5CR
- -114 -4.5 867.7Mhz, SF9BW125, 4/5CR
- -111 -11.75 867.7Mhz, SF9BW125, 4/5CR
2020-09-28 23:59:21 12.125°C 89.9375% 3.34V v4 51.5564 / 5.06757 7913 - -109 -0.2 867.5Mhz, SF9BW125, 4/5CR
2020-09-28 23:28:21 12.0625°C 90.375% 3.34V v4 51.5564 / 5.06757 7911 - -114 -0.2 867.3Mhz, SF9BW125, 4/5CR
- -117 -10 867.3Mhz, SF9BW125, 4/5CR
2020-09-28 22:57:21 12.0625°C 90.8125% 3.34V v4 51.5564 / 5.06757 7909 - -117 -3.5 867.1Mhz, SF9BW125, 4/5CR
- -117 -12.8 867.1Mhz, SF9BW125, 4/5CR
2020-09-28 22:41:51 12.0625°C 91.0625% 3.34V v4 51.5564 / 5.06757 7908 - -106 -6.2 868.1Mhz, SF9BW125, 4/5CR
2020-09-28 22:26:21 12.125°C 91.3125% 3.34V v4 51.5564 / 5.06757 7907 - -108 6 867.9Mhz, SF9BW125, 4/5CR
- -114 -4.8 867.9Mhz, SF9BW125, 4/5CR
- -111 -13.25 867.9Mhz, SF9BW125, 4/5CR
2020-09-28 22:10:51 12.1875°C 91.5625% 3.34V v4 51.5564 / 5.06757 7906 - -96 -10.5 868.5Mhz, SF9BW125, 4/5CR
2020-09-28 21:55:21 12.1875°C 91.875% 3.34V v4 51.5564 / 5.06757 7905 - -109 7.8 867.7Mhz, SF9BW125, 4/5CR
- -117 -4.8 867.7Mhz, SF9BW125, 4/5CR
- -111 -10.5 867.7Mhz, SF9BW125, 4/5CR
2020-09-28 21:24:21 12.125°C 92.4375% 3.34V v4 51.5564 / 5.06757 7903 - -109 1.5 867.5Mhz, SF9BW125, 4/5CR
2020-09-28 21:08:51 12.125°C 92.8125% 3.34V v4 51.5564 / 5.06757 7902 - -106 -3.5 868.1Mhz, SF9BW125, 4/5CR
2020-09-28 20:53:21 12.0625°C 93.125% 3.34V v4 51.5564 / 5.06757 7901 - -114 -0.2 867.3Mhz, SF9BW125, 4/5CR
2020-09-28 20:37:51 12.125°C 93.5% 3.34V v4 51.5564 / 5.06757 7900 - -100 -10.2 868.5Mhz, SF9BW125, 4/5CR
2020-09-28 20:22:21 12.0625°C 93.875% 3.34V v4 51.5564 / 5.06757 7899 - -117 -0.2 867.1Mhz, SF9BW125, 4/5CR
2020-09-28 19:51:21 12.125°C 94.75% 3.34V v4 51.5564 / 5.06757 7897 - -111 7.8 867.9Mhz, SF9BW125, 4/5CR
- -117 -3.5 867.9Mhz, SF9BW125, 4/5CR
2020-09-28 19:35:51 12.125°C 95.1875% 3.34V v4 51.5564 / 5.06757 7896 - -109 3.2 868.1Mhz, SF9BW125, 4/5CR
2020-09-28 19:20:21 12.125°C 95.625% 3.34V v4 51.5564 / 5.06757 7895 - -109 7.5 867.7Mhz, SF9BW125, 4/5CR
- -115 -4.8 867.7Mhz, SF9BW125, 4/5CR
- -111 -9.25 867.7Mhz, SF9BW125, 4/5CR
2020-09-28 19:04:51 12.1875°C 96.0625% 3.34V v4 51.5564 / 5.06757 7894 - -100 -11.2 868.5Mhz, SF9BW125, 4/5CR
2020-09-28 18:49:21 12.125°C 96.5625% 3.34V v4 51.5564 / 5.06757 7893 - -108 3.2 867.5Mhz, SF9BW125, 4/5CR
2020-09-28 18:18:21 12.375°C 97.6875% 3.34V v4 51.5564 / 5.06757 7891 - -113 -2.2 867.3Mhz, SF9BW125, 4/5CR
- -117 -11 867.3Mhz, SF9BW125, 4/5CR
2020-09-28 18:02:51 12.5°C 98.25% 3.34V v4 51.5564 / 5.06757 7890 - -111 -2 868.1Mhz, SF9BW125, 4/5CR
- -117 -4.5 868.1Mhz, SF9BW125, 4/5CR
2020-09-28 17:47:20 12.4375°C 98.8125% 3.34V v4 51.5564 / 5.06757 7889 - -114 0 867.1Mhz, SF9BW125, 4/5CR
- -118 -10.2 867.1Mhz, SF9BW125, 4/5CR
2020-09-28 17:31:50 12.5°C 99.375% 3.34V v4 51.5564 / 5.06757 7888 - -101 -9.5 868.5Mhz, SF9BW125, 4/5CR
2020-09-28 17:16:20 12.625°C 99.9375% 3.34V v4 51.5564 / 5.06757 7887 - -111 6.8 867.9Mhz, SF9BW125, 4/5CR
- -118 -3.5 867.9Mhz, SF9BW125, 4/5CR
2020-09-28 17:00:50 12.6875°C 100.625% 3.34V v4 51.5564 / 5.06757 7886 - -96 -11.8 868.3Mhz, SF9BW125, 4/5CR
2020-09-28 16:45:19 12.8125°C 101.312% 3.34V v4 51.5564 / 5.06757 7885 - -109 8.2 867.7Mhz, SF9BW125, 4/5CR
- -118 -2.5 867.7Mhz, SF9BW125, 4/5CR
- -113 -11.75 867.7Mhz, SF9BW125, 4/5CR
2020-09-28 16:29:49 12.875°C 102.125% 3.34V v4 51.5564 / 5.06757 7884 - -106 0.2 868.1Mhz, SF9BW125, 4/5CR
2020-09-28 16:14:19 12.875°C 102.875% 3.34V v4 51.5564 / 5.06757 7883 - -108 -0.2 867.5Mhz, SF9BW125, 4/5CR
2020-09-28 15:27:48 12.6875°C 105.688% 3.34V v4 51.5564 / 5.06757 7880 - -105 0.8 868.3Mhz, SF9BW125, 4/5CR

Message count: 50
Node count: 1

Messages per node

Number of messages in list aboveNodes
50

Statistics per gateway

GatewayNumber of messagesNumber of nodesNodes
501
191
101

Filter by dataset